createdAt,value
2022-10-07T00:03:51.992Z,40.04
2022-10-07T00:11:46.294Z,40.05
2022-10-07T00:19:31.924Z,40.03
2022-10-07T00:27:13.327Z,40.04
2022-10-07T00:35:07.407Z,39.99
2022-10-07T00:42:58.517Z,39.96
2022-10-07T00:50:51.165Z,39.97
2022-10-07T00:58:50.789Z,39.92
2022-10-07T01:06:34.701Z,39.94
2022-10-07T01:14:52.062Z,39.9
2022-10-07T01:23:04.594Z,39.91
2022-10-07T01:31:31.767Z,39.89
2022-10-07T01:39:18.617Z,39.91
2022-10-07T01:47:16.787Z,39.99
2022-10-07T01:55:15.159Z,39.97
2022-10-07T02:03:25.827Z,39.98
2022-10-07T02:11:44.973Z,40.05
2022-10-07T02:20:00.026Z,39.98
2022-10-07T02:27:54.621Z,40.01
2022-10-07T02:35:58.165Z,40.03
2022-10-07T02:44:05.670Z,39.98
2022-10-07T02:52:36.360Z,39.97
2022-10-07T03:00:20.102Z,40.08
2022-10-07T03:08:11.081Z,39.7
2022-10-07T03:15:52.444Z,39.87
2022-10-07T03:23:43.016Z,39.71
2022-10-07T03:31:27.843Z,40.03
2022-10-07T03:38:57.504Z,40.05
2022-10-07T03:46:36.383Z,40.02
2022-10-07T03:54:21.421Z,40.05
2022-10-07T04:01:47.980Z,40.13
2022-10-07T04:09:13.775Z,40.18
2022-10-07T04:16:52.170Z,40.19
2022-10-07T04:24:23.820Z,40.18
2022-10-07T04:31:55.166Z,40.19
2022-10-07T04:39:42.997Z,39.99
2022-10-07T04:47:19.604Z,39.92
2022-10-07T04:54:52.067Z,39.87
2022-10-07T05:02:08.212Z,39.78
2022-10-07T05:09:22.459Z,39.68
2022-10-07T05:15:59.578Z,39.14
2022-10-07T05:22:35.526Z,39.15
2022-10-07T05:29:15.147Z,39.13
2022-10-07T05:35:47.568Z,38.93
2022-10-07T05:42:11.596Z,38.86
2022-10-07T05:48:40.050Z,38.85
2022-10-07T05:55:15.548Z,38.9
2022-10-07T06:01:54.733Z,38.8
2022-10-07T06:08:36.220Z,38.78
2022-10-07T06:15:10.092Z,38.68
2022-10-07T06:21:37.057Z,38.74
2022-10-07T06:28:05.873Z,38.69
2022-10-07T06:34:39.122Z,38.67
2022-10-07T06:41:06.683Z,38.64
2022-10-07T06:47:37.698Z,38.71
2022-10-07T06:54:08.568Z,38.43
2022-10-07T07:00:42.992Z,38.66
2022-10-07T07:07:15.932Z,38.69
2022-10-07T07:13:52.706Z,38.77
2022-10-07T07:20:38.611Z,38.84
2022-10-07T07:27:17.108Z,38.98
2022-10-07T07:33:47.564Z,38.93
2022-10-07T07:40:20.592Z,38.97
2022-10-07T07:47:00.785Z,38.95
2022-10-07T07:53:27.306Z,38.78
2022-10-07T08:00:02.668Z,38.64
2022-10-07T08:06:27.666Z,38.59
2022-10-07T08:13:02.443Z,38.6
2022-10-07T08:19:36.644Z,38.58
2022-10-07T08:26:05.663Z,38.59
2022-10-07T08:32:30.759Z,38.54
2022-10-07T08:39:02.979Z,38.54
2022-10-07T08:45:57.156Z,38.45
2022-10-07T08:52:55.104Z,38.37
2022-10-07T08:59:55.790Z,38.29
2022-10-07T09:07:07.363Z,38.36
2022-10-07T09:14:17.765Z,38.26
2022-10-07T09:21:31.963Z,38.29
2022-10-07T09:28:32.088Z,38.32
2022-10-07T09:35:02.717Z,38.32
2022-10-07T09:42:00.582Z,38.33
2022-10-07T09:48:42.786Z,38.3
2022-10-07T09:55:31.846Z,38.35
2022-10-07T10:02:40.078Z,38.29
2022-10-07T10:09:33.554Z,38.39
2022-10-07T10:16:36.693Z,38.41
2022-10-07T10:23:19.961Z,38.5
2022-10-07T10:30:30.059Z,38.45
2022-10-07T10:37:46.501Z,38.38
2022-10-07T10:44:58.094Z,38.35
2022-10-07T10:52:14.223Z,38.52
2022-10-07T10:59:28.475Z,38.55
2022-10-07T11:06:33.194Z,38.55
2022-10-07T11:13:34.883Z,38.39
2022-10-07T11:20:33.162Z,38.53
2022-10-07T11:27:51.001Z,38.42
2022-10-07T11:35:04.329Z,38.49
2022-10-07T11:42:08.807Z,38.41
2022-10-07T11:49:29.199Z,38.18
2022-10-07T11:56:22.242Z,38.34
2022-10-07T12:03:05.317Z,38.32
2022-10-07T12:10:08.653Z,38.07
2022-10-07T12:17:08.920Z,38.28
2022-10-07T12:23:54.603Z,38.31
2022-10-07T12:31:03.786Z,38.19
2022-10-07T12:38:01.259Z,38.07
2022-10-07T12:45:04.113Z,38.11
2022-10-07T12:52:00.160Z,38.13
2022-10-07T12:59:03.892Z,38.08
2022-10-07T13:06:09.231Z,37.9
2022-10-07T13:13:31.406Z,37.82
2022-10-07T13:20:51.108Z,37.88
2022-10-07T13:27:42.900Z,37.64
2022-10-07T13:34:52.022Z,37.41
2022-10-07T13:41:57.991Z,37.19
2022-10-07T13:48:45.941Z,37.16
2022-10-07T13:55:45.255Z,37.07
2022-10-07T14:02:23.713Z,37.24
2022-10-07T14:09:29.256Z,37.36
2022-10-07T14:16:33.347Z,37.52
2022-10-07T14:23:40.547Z,37.46
2022-10-07T14:30:45.449Z,37.49
2022-10-07T14:37:49.332Z,37.37
2022-10-07T14:44:34.134Z,37.34
2022-10-07T14:51:08.536Z,37.35
2022-10-07T14:57:56.005Z,37.28
2022-10-07T15:04:25.044Z,37.46
2022-10-07T15:10:57.312Z,37.58
2022-10-07T15:17:42.497Z,37.46
2022-10-07T15:24:11.633Z,37.64
2022-10-07T15:30:51.547Z,37.71
2022-10-07T15:37:27.068Z,37.78
2022-10-07T15:44:19.222Z,37.83
2022-10-07T15:50:57.319Z,37.98
2022-10-07T15:57:33.338Z,37.99
2022-10-07T16:04:14.007Z,37.87
2022-10-07T16:11:13.425Z,37.86
2022-10-07T16:17:52.212Z,38.06
2022-10-07T16:24:51.162Z,37.89
2022-10-07T16:31:30.845Z,38.09
2022-10-07T16:38:09.974Z,37.92
2022-10-07T16:44:51.807Z,38.19
2022-10-07T16:51:27.426Z,38.22
2022-10-07T16:58:12.748Z,38.3
2022-10-07T17:05:01.031Z,38.38
2022-10-07T17:11:39.026Z,38.46
2022-10-07T17:18:10.922Z,38.43
2022-10-07T17:24:47.507Z,38.44
2022-10-07T17:31:39.559Z,38.47
2022-10-07T17:38:13.390Z,38.52
2022-10-07T17:44:44.001Z,38.55
2022-10-07T17:51:22.168Z,38.6
2022-10-07T17:57:49.365Z,38.57
2022-10-07T18:04:14.401Z,38.63
2022-10-07T18:10:45.776Z,38.64
2022-10-07T18:17:20.259Z,38.6
2022-10-07T18:23:47.002Z,38.77
2022-10-07T18:30:17.408Z,38.69
2022-10-07T18:37:05.635Z,38.78
2022-10-07T18:43:42.055Z,38.75
2022-10-07T18:50:33.948Z,38.78
2022-10-07T18:57:07.956Z,38.74
2022-10-07T19:03:28.953Z,38.78
2022-10-07T19:10:01.929Z,38.79
2022-10-07T19:16:42.091Z,38.7
2022-10-07T19:23:18.599Z,38.66
2022-10-07T19:29:56.299Z,38.67
2022-10-07T19:36:30.954Z,38.63
2022-10-07T19:43:12.016Z,38.7
2022-10-07T19:49:39.330Z,38.68
2022-10-07T19:56:07.604Z,38.72
2022-10-07T20:02:47.268Z,38.72
2022-10-07T20:09:28.273Z,38.67
2022-10-07T20:16:02.302Z,38.66
2022-10-07T20:22:57.465Z,38.63
2022-10-07T20:29:31.960Z,38.71
2022-10-07T20:36:05.010Z,38.67
2022-10-07T20:42:50.924Z,38.64
2022-10-07T20:49:21.884Z,38.66
2022-10-07T20:56:01.428Z,38.66
2022-10-07T21:02:41.547Z,38.59
2022-10-07T21:09:12.126Z,38.42
2022-10-07T21:15:42.021Z,38.64
2022-10-07T21:22:12.595Z,38.7
2022-10-07T21:28:54.396Z,38.74
2022-10-07T21:35:27.196Z,38.69
2022-10-07T21:42:08.670Z,38.63
2022-10-07T21:48:44.007Z,38.7
2022-10-07T21:55:07.102Z,38.69
2022-10-07T22:01:42.509Z,38.63
2022-10-07T22:08:12.042Z,38.56
2022-10-07T22:14:48.948Z,38.57
2022-10-07T22:21:18.408Z,38.6
2022-10-07T22:27:51.813Z,38.57
2022-10-07T22:34:33.495Z,38.62
2022-10-07T22:41:13.589Z,38.61
2022-10-07T22:47:47.112Z,38.59
2022-10-07T22:54:16.229Z,38.63
2022-10-07T23:00:47.220Z,38.63
2022-10-07T23:07:17.826Z,38.59
2022-10-07T23:13:40.390Z,38.58
2022-10-07T23:20:08.262Z,38.6
2022-10-07T23:26:50.126Z,38.46
2022-10-07T23:33:12.003Z,38.48
2022-10-07T23:39:48.126Z,38.49
2022-10-07T23:46:23.199Z,38.34
2022-10-07T23:52:57.228Z,38.43
2022-10-07T23:59:24.755Z,38.57
